sensor_id;sensor_type;location;lat;lon;timestamp;pressure;altitude;pressure_sealevel;temperature;humidity
35704;BME280;21820;51.112;13.762;2023-04-27T00:00:27;99656.31;;;23.29;47.63
35704;BME280;21820;51.112;13.762;2023-04-27T00:02:53;99653.94;;;23.25;49.85
35704;BME280;21820;51.112;13.762;2023-04-27T00:05:18;99656.09;;;23.12;50.38
35704;BME280;21820;51.112;13.762;2023-04-27T00:07:44;99654.00;;;23.16;51.97
35704;BME280;21820;51.112;13.762;2023-04-27T00:10:10;99644.66;;;23.13;51.80
35704;BME280;21820;51.112;13.762;2023-04-27T00:12:35;99649.28;;;23.19;51.91
35704;BME280;21820;51.112;13.762;2023-04-27T00:15:00;99651.75;;;23.21;52.04
35704;BME280;21820;51.112;13.762;2023-04-27T00:17:26;99647.34;;;23.21;52.37
35704;BME280;21820;51.112;13.762;2023-04-27T00:19:51;99648.19;;;23.22;52.62
35704;BME280;21820;51.112;13.762;2023-04-27T00:22:17;99648.84;;;23.24;52.48
35704;BME280;21820;51.112;13.762;2023-04-27T00:24:43;99625.16;;;23.16;52.87
35704;BME280;21820;51.112;13.762;2023-04-27T00:27:08;99642.63;;;23.25;53.10
35704;BME280;21820;51.112;13.762;2023-04-27T00:29:33;99637.44;;;23.15;50.07
35704;BME280;21820;51.112;13.762;2023-04-27T00:31:59;99623.22;;;23.00;48.82
35704;BME280;21820;51.112;13.762;2023-04-27T00:34:24;99637.19;;;23.09;48.41
35704;BME280;21820;51.112;13.762;2023-04-27T00:36:50;99645.19;;;23.17;47.48
35704;BME280;21820;51.112;13.762;2023-04-27T00:39:15;99643.50;;;23.16;47.98
35704;BME280;21820;51.112;13.762;2023-04-27T00:41:41;99645.84;;;23.19;46.94
35704;BME280;21820;51.112;13.762;2023-04-27T00:44:06;99644.28;;;23.26;48.56
35704;BME280;21820;51.112;13.762;2023-04-27T00:46:33;99648.38;;;23.11;50.83
35704;BME280;21820;51.112;13.762;2023-04-27T00:48:59;99655.44;;;23.10;50.89
35704;BME280;21820;51.112;13.762;2023-04-27T00:51:25;99636.25;;;23.10;51.42
35704;BME280;21820;51.112;13.762;2023-04-27T00:53:52;99656.63;;;23.16;51.80
35704;BME280;21820;51.112;13.762;2023-04-27T00:56:18;99649.44;;;23.18;51.71
35704;BME280;21820;51.112;13.762;2023-04-27T00:58:43;99653.06;;;23.17;52.17
35704;BME280;21820;51.112;13.762;2023-04-27T01:01:09;99660.63;;;23.20;52.34
35704;BME280;21820;51.112;13.762;2023-04-27T01:03:35;99659.78;;;23.19;52.41
35704;BME280;21820;51.112;13.762;2023-04-27T01:06:00;99662.25;;;23.21;52.41
35704;BME280;21820;51.112;13.762;2023-04-27T01:08:27;99658.94;;;23.19;52.90
35704;BME280;21820;51.112;13.762;2023-04-27T01:10:52;99663.25;;;23.20;52.02
35704;BME280;21820;51.112;13.762;2023-04-27T01:13:21;99664.56;;;23.06;49.43
35704;BME280;21820;51.112;13.762;2023-04-27T01:15:46;99664.56;;;23.06;48.31
35704;BME280;21820;51.112;13.762;2023-04-27T01:18:12;99662.41;;;23.02;47.72
35704;BME280;21820;51.112;13.762;2023-04-27T01:20:37;99659.16;;;23.08;47.94
35704;BME280;21820;51.112;13.762;2023-04-27T01:23:03;99670.34;;;23.10;47.60
35704;BME280;21820;51.112;13.762;2023-04-27T01:25:28;99660.25;;;23.15;47.40
35704;BME280;21820;51.112;13.762;2023-04-27T01:27:54;99672.38;;;23.16;49.11
35704;BME280;21820;51.112;13.762;2023-04-27T01:30:19;99663.72;;;23.06;50.29
35704;BME280;21820;51.112;13.762;2023-04-27T01:32:49;99677.00;;;23.04;51.21
35704;BME280;21820;51.112;13.762;2023-04-27T01:35:15;99670.50;;;23.08;51.05
35704;BME280;21820;51.112;13.762;2023-04-27T01:37:40;99668.56;;;23.10;51.45
35704;BME280;21820;51.112;13.762;2023-04-27T01:40:06;99663.16;;;23.12;52.32
35704;BME280;21820;51.112;13.762;2023-04-27T01:42:33;99649.94;;;23.04;52.12
35704;BME280;21820;51.112;13.762;2023-04-27T01:44:58;99668.78;;;23.17;51.85
35704;BME280;21820;51.112;13.762;2023-04-27T01:47:24;99673.19;;;23.16;52.12
35704;BME280;21820;51.112;13.762;2023-04-27T01:49:50;99679.13;;;23.18;52.47
35704;BME280;21820;51.112;13.762;2023-04-27T01:52:15;99672.06;;;23.19;52.24
35704;BME280;21820;51.112;13.762;2023-04-27T01:54:40;99678.94;;;23.02;48.74
35704;BME280;21820;51.112;13.762;2023-04-27T01:57:06;99679.06;;;23.01;48.63
35704;BME280;21820;51.112;13.762;2023-04-27T01:59:31;99664.63;;;22.97;47.44
35704;BME280;21820;51.112;13.762;2023-04-27T02:01:56;99681.78;;;23.09;47.22
35704;BME280;21820;51.112;13.762;2023-04-27T02:04:22;99680.69;;;23.11;47.60
35704;BME280;21820;51.112;13.762;2023-04-27T02:06:47;99685.78;;;23.13;47.39
35704;BME280;21820;51.112;13.762;2023-04-27T02:09:12;99690.34;;;23.11;49.01
35704;BME280;21820;51.112;13.762;2023-04-27T02:11:38;99689.41;;;23.02;50.05
35704;BME280;21820;51.112;13.762;2023-04-27T02:14:03;99692.03;;;23.02;50.32
35704;BME280;21820;51.112;13.762;2023-04-27T02:16:28;99689.94;;;23.06;51.74
35704;BME280;21820;51.112;13.762;2023-04-27T02:18:54;99684.41;;;23.09;51.55
35704;BME280;21820;51.112;13.762;2023-04-27T02:21:20;99689.25;;;23.04;51.78
35704;BME280;21820;51.112;13.762;2023-04-27T02:23:45;99686.75;;;23.12;52.26
35704;BME280;21820;51.112;13.762;2023-04-27T02:26:18;99685.09;;;23.11;52.75
35704;BME280;21820;51.112;13.762;2023-04-27T02:28:44;99694.63;;;23.12;51.75
35704;BME280;21820;51.112;13.762;2023-04-27T02:31:12;99695.28;;;23.14;52.06
35704;BME280;21820;51.112;13.762;2023-04-27T02:33:38;99694.63;;;23.12;52.41
35704;BME280;21820;51.112;13.762;2023-04-27T02:36:03;99693.09;;;22.92;48.56
35704;BME280;21820;51.112;13.762;2023-04-27T02:38:29;99687.53;;;22.95;48.19
35704;BME280;21820;51.112;13.762;2023-04-27T02:40:54;99671.56;;;22.88;48.04
35704;BME280;21820;51.112;13.762;2023-04-27T02:43:20;99694.41;;;23.05;47.47
35704;BME280;21820;51.112;13.762;2023-04-27T02:45:45;99690.78;;;23.06;47.59
35704;BME280;21820;51.112;13.762;2023-04-27T02:48:11;99684.19;;;23.02;47.17
35704;BME280;21820;51.112;13.762;2023-04-27T02:50:40;99694.50;;;23.04;49.64
35704;BME280;21820;51.112;13.762;2023-04-27T02:53:06;99677.13;;;22.85;50.11
35704;BME280;21820;51.112;13.762;2023-04-27T02:55:31;99687.25;;;22.98;51.07
35704;BME280;21820;51.112;13.762;2023-04-27T02:57:57;99693.03;;;23.01;51.26
35704;BME280;21820;51.112;13.762;2023-04-27T03:00:22;99694.50;;;23.04;51.57
35704;BME280;21820;51.112;13.762;2023-04-27T03:02:48;99670.16;;;22.94;51.41
35704;BME280;21820;51.112;13.762;2023-04-27T03:05:13;99689.94;;;23.06;51.94
35704;BME280;21820;51.112;13.762;2023-04-27T03:07:38;99688.00;;;23.08;51.76
35704;BME280;21820;51.112;13.762;2023-04-27T03:10:04;99688.84;;;23.08;51.51
35704;BME280;21820;51.112;13.762;2023-04-27T03:12:29;99698.34;;;23.09;52.23
35704;BME280;21820;51.112;13.762;2023-04-27T03:14:54;99696.72;;;23.08;52.07
35704;BME280;21820;51.112;13.762;2023-04-27T03:17:20;99703.56;;;22.92;48.75
35704;BME280;21820;51.112;13.762;2023-04-27T03:19:46;99690.59;;;22.90;48.14
35704;BME280;21820;51.112;13.762;2023-04-27T03:22:13;99705.75;;;22.96;48.16
35704;BME280;21820;51.112;13.762;2023-04-27T03:24:38;99706.28;;;23.00;47.68
35704;BME280;21820;51.112;13.762;2023-04-27T03:27:04;99708.06;;;22.99;47.53
35704;BME280;21820;51.112;13.762;2023-04-27T03:29:29;99701.44;;;23.05;48.52
35704;BME280;21820;51.112;13.762;2023-04-27T03:31:54;99712.13;;;22.94;49.85
35704;BME280;21820;51.112;13.762;2023-04-27T03:34:20;99727.03;;;22.93;50.75
35704;BME280;21820;51.112;13.762;2023-04-27T03:36:45;99730.19;;;22.97;51.00
35704;BME280;21820;51.112;13.762;2023-04-27T03:39:11;99725.09;;;22.86;51.49
35704;BME280;21820;51.112;13.762;2023-04-27T03:41:36;99723.00;;;22.53;51.75
35704;BME280;21820;51.112;13.762;2023-04-27T03:44:02;99731.00;;;22.61;51.70
35704;BME280;21820;51.112;13.762;2023-04-27T03:46:27;99732.63;;;22.71;51.85
35704;BME280;21820;51.112;13.762;2023-04-27T03:48:52;99719.63;;;22.79;51.42
35704;BME280;21820;51.112;13.762;2023-04-27T03:51:18;99737.66;;;22.92;51.11
35704;BME280;21820;51.112;13.762;2023-04-27T03:53:43;99740.53;;;22.98;50.99
35704;BME280;21820;51.112;13.762;2023-04-27T03:56:08;99747.22;;;23.10;51.45
35704;BME280;21820;51.112;13.762;2023-04-27T03:58:34;99744.84;;;23.17;49.52
35704;BME280;21820;51.112;13.762;2023-04-27T04:00:59;99742.13;;;23.36;49.81
35704;BME280;21820;51.112;13.762;2023-04-27T04:03:25;99741.44;;;23.34;49.90
35704;BME280;21820;51.112;13.762;2023-04-27T04:05:50;99748.63;;;23.32;50.17
35704;BME280;21820;51.112;13.762;2023-04-27T04:08:16;99750.53;;;23.40;50.35
35704;BME280;21820;51.112;13.762;2023-04-27T04:10:41;99741.06;;;23.29;50.11
35704;BME280;21820;51.112;13.762;2023-04-27T04:13:06;99747.69;;;23.33;50.41
35704;BME280;21820;51.112;13.762;2023-04-27T04:15:32;99747.38;;;23.36;50.02
35704;BME280;21820;51.112;13.762;2023-04-27T04:17:57;99746.84;;;23.33;50.86
35704;BME280;21820;51.112;13.762;2023-04-27T04:20:22;99751.38;;;23.40;50.52
35704;BME280;21820;51.112;13.762;2023-04-27T04:22:48;99758.13;;;23.43;50.36
35704;BME280;21820;51.112;13.762;2023-04-27T04:25:13;99755.50;;;23.43;50.67
35704;BME280;21820;51.112;13.762;2023-04-27T04:27:39;99751.06;;;23.43;50.95
35704;BME280;21820;51.112;13.762;2023-04-27T04:30:05;99754.47;;;23.53;50.33
35704;BME280;21820;51.112;13.762;2023-04-27T04:32:32;99760.47;;;23.63;49.40
35704;BME280;21820;51.112;13.762;2023-04-27T04:34:58;99737.75;;;23.54;49.28
35704;BME280;21820;51.112;13.762;2023-04-27T04:37:26;99769.91;;;23.56;50.06
35704;BME280;21820;51.112;13.762;2023-04-27T04:39:54;99768.34;;;23.63;49.84
35704;BME280;21820;51.112;13.762;2023-04-27T04:42:19;99776.22;;;23.63;50.00
35704;BME280;21820;51.112;13.762;2023-04-27T04:44:45;99778.41;;;23.68;49.90
35704;BME280;21820;51.112;13.762;2023-04-27T04:47:11;99776.84;;;23.75;49.16
35704;BME280;21820;51.112;13.762;2023-04-27T04:49:37;99777.94;;;23.72;50.18
35704;BME280;21820;51.112;13.762;2023-04-27T04:52:02;99756.41;;;23.51;50.05
35704;BME280;21820;51.112;13.762;2023-04-27T04:54:30;99775.16;;;23.56;50.31
35704;BME280;21820;51.112;13.762;2023-04-27T04:56:56;99773.94;;;23.51;50.03
35704;BME280;21820;51.112;13.762;2023-04-27T04:59:23;99776.72;;;23.49;50.90
35704;BME280;21820;51.112;13.762;2023-04-27T05:01:48;99783.81;;;23.66;51.01
35704;BME280;21820;51.112;13.762;2023-04-27T05:04:14;99787.94;;;23.86;48.51
35704;BME280;21820;51.112;13.762;2023-04-27T05:06:39;99782.97;;;23.83;48.42
35704;BME280;21820;51.112;13.762;2023-04-27T05:09:04;99791.88;;;23.55;50.00
35704;BME280;21820;51.112;13.762;2023-04-27T05:11:33;99793.94;;;23.34;50.44
35704;BME280;21820;51.112;13.762;2023-04-27T05:13:58;99793.13;;;23.24;50.60
35704;BME280;21820;51.112;13.762;2023-04-27T05:16:24;99791.78;;;23.20;51.58
35704;BME280;21820;51.112;13.762;2023-04-27T05:18:50;99791.78;;;23.20;50.77
35704;BME280;21820;51.112;13.762;2023-04-27T05:21:16;99795.75;;;23.24;51.57
35704;BME280;21820;51.112;13.762;2023-04-27T05:23:45;99792.84;;;23.27;51.54
35704;BME280;21820;51.112;13.762;2023-04-27T05:26:13;99797.25;;;23.36;50.99
35704;BME280;21820;51.112;13.762;2023-04-27T05:28:39;99792.69;;;23.38;51.53
35704;BME280;21820;51.112;13.762;2023-04-27T05:31:04;99791.41;;;23.42;50.54
35704;BME280;21820;51.112;13.762;2023-04-27T05:33:30;99777.78;;;23.56;51.11
35704;BME280;21820;51.112;13.762;2023-04-27T05:35:56;99794.38;;;23.74;49.94
35704;BME280;21820;51.112;13.762;2023-04-27T05:38:21;99792.81;;;23.81;50.16
35704;BME280;21820;51.112;13.762;2023-04-27T05:40:46;99795.94;;;23.67;49.81
35704;BME280;21820;51.112;13.762;2023-04-27T05:43:17;99796.63;;;23.69;49.56
35704;BME280;21820;51.112;13.762;2023-04-27T05:45:43;99792.38;;;23.68;50.04
35704;BME280;21820;51.112;13.762;2023-04-27T05:48:08;99780.50;;;23.64;49.93
35704;BME280;21820;51.112;13.762;2023-04-27T05:50:33;99796.53;;;23.61;50.50
35704;BME280;21820;51.112;13.762;2023-04-27T05:52:59;99789.16;;;23.47;50.94
35704;BME280;21820;51.112;13.762;2023-04-27T05:55:25;99792.53;;;23.40;51.11
35704;BME280;21820;51.112;13.762;2023-04-27T05:57:50;99771.28;;;23.33;50.53
35704;BME280;21820;51.112;13.762;2023-04-27T06:00:16;99791.19;;;23.26;50.88
35704;BME280;21820;51.112;13.762;2023-04-27T06:02:41;99787.06;;;23.23;51.18
35704;BME280;21820;51.112;13.762;2023-04-27T06:05:07;99774.94;;;23.67;50.45
35704;BME280;21820;51.112;13.762;2023-04-27T06:07:32;99771.59;;;23.75;49.61
35704;BME280;21820;51.112;13.762;2023-04-27T06:09:58;99783.06;;;23.91;48.67
35704;BME280;21820;51.112;13.762;2023-04-27T06:12:23;99786.97;;;23.70;49.95
35704;BME280;21820;51.112;13.762;2023-04-27T06:14:48;99785.72;;;23.47;50.03
35704;BME280;21820;51.112;13.762;2023-04-27T06:17:14;99785.19;;;23.43;50.88
35704;BME280;21820;51.112;13.762;2023-04-27T06:19:39;99785.75;;;23.37;50.73
35704;BME280;21820;51.112;13.762;2023-04-27T06:22:05;99792.06;;;23.44;50.52
35704;BME280;21820;51.112;13.762;2023-04-27T06:24:30;99789.31;;;23.46;50.91
35704;BME280;21820;51.112;13.762;2023-04-27T06:26:55;99763.28;;;23.35;50.75
35704;BME280;21820;51.112;13.762;2023-04-27T06:29:21;99786.13;;;23.52;50.20
35704;BME280;21820;51.112;13.762;2023-04-27T06:31:46;99790.75;;;23.58;50.65
35704;BME280;21820;51.112;13.762;2023-04-27T06:34:12;99788.00;;;23.59;50.26
35704;BME280;21820;51.112;13.762;2023-04-27T06:36:37;99798.94;;;23.72;49.72
35704;BME280;21820;51.112;13.762;2023-04-27T06:39:02;99801.28;;;23.75;49.76
35704;BME280;21820;51.112;13.762;2023-04-27T06:41:28;99801.97;;;23.77;50.47
35704;BME280;21820;51.112;13.762;2023-04-27T06:43:53;99800.38;;;23.67;50.18
35704;BME280;21820;51.112;13.762;2023-04-27T06:46:19;99796.53;;;23.61;50.03
35704;BME280;21820;51.112;13.762;2023-04-27T06:48:44;99798.63;;;23.58;50.10
35704;BME280;21820;51.112;13.762;2023-04-27T06:51:11;99798.00;;;23.46;50.58
35704;BME280;21820;51.112;13.762;2023-04-27T06:53:37;99802.44;;;23.46;51.05
35704;BME280;21820;51.112;13.762;2023-04-27T06:56:03;99810.34;;;23.36;50.73
35704;BME280;21820;51.112;13.762;2023-04-27T06:58:28;99801.13;;;23.22;51.03
35704;BME280;21820;51.112;13.762;2023-04-27T07:00:54;99813.84;;;23.27;51.29
35704;BME280;21820;51.112;13.762;2023-04-27T07:03:19;99818.00;;;23.20;51.67
35704;BME280;21820;51.112;13.762;2023-04-27T07:05:46;99812.81;;;23.10;51.77
35704;BME280;21820;51.112;13.762;2023-04-27T07:08:11;99811.34;;;23.35;50.98
35704;BME280;21820;51.112;13.762;2023-04-27T07:10:37;99814.69;;;23.72;49.94
35704;BME280;21820;51.112;13.762;2023-04-27T07:13:02;99821.09;;;23.87;49.04
35704;BME280;21820;51.112;13.762;2023-04-27T07:15:30;99815.69;;;23.89;47.79
35704;BME280;21820;51.112;13.762;2023-04-27T07:17:55;99813.94;;;23.62;49.88
35704;BME280;21820;51.112;13.762;2023-04-27T07:20:21;99819.00;;;23.46;50.98
35704;BME280;21820;51.112;13.762;2023-04-27T07:22:46;99824.25;;;23.46;50.73
35704;BME280;21820;51.112;13.762;2023-04-27T07:25:12;99813.59;;;23.48;51.08
35704;BME280;21820;51.112;13.762;2023-04-27T07:27:37;99810.69;;;23.51;50.47
35704;BME280;21820;51.112;13.762;2023-04-27T07:30:04;99806.81;;;23.55;50.72
35704;BME280;21820;51.112;13.762;2023-04-27T07:32:32;99810.91;;;23.57;50.51
35704;BME280;21820;51.112;13.762;2023-04-27T07:34:57;99810.63;;;23.60;50.62
35704;BME280;21820;51.112;13.762;2023-04-27T07:37:23;99812.88;;;23.55;50.67
35704;BME280;21820;51.112;13.762;2023-04-27T07:39:49;99815.63;;;23.54;50.85
35704;BME280;21820;51.112;13.762;2023-04-27T07:42:16;99816.66;;;23.70;49.49
35704;BME280;21820;51.112;13.762;2023-04-27T07:44:42;99820.94;;;23.89;49.08
35704;BME280;21820;51.112;13.762;2023-04-27T07:47:08;99823.66;;;23.97;49.51
35704;BME280;21820;51.112;13.762;2023-04-27T07:49:35;99818.06;;;23.65;50.18
35704;BME280;21820;51.112;13.762;2023-04-27T07:52:01;99815.69;;;23.44;50.93
35704;BME280;21820;51.112;13.762;2023-04-27T07:54:27;99804.75;;;23.21;51.45
35704;BME280;21820;51.112;13.762;2023-04-27T07:56:52;99822.94;;;23.23;51.80
35704;BME280;21820;51.112;13.762;2023-04-27T07:59:18;99829.75;;;23.16;51.46
35704;BME280;21820;51.112;13.762;2023-04-27T08:01:43;99828.00;;;23.07;51.96
35704;BME280;21820;51.112;13.762;2023-04-27T08:04:09;99833.78;;;23.01;51.98
35704;BME280;21820;51.112;13.762;2023-04-27T08:06:36;99834.22;;;22.96;52.09
35704;BME280;21820;51.112;13.762;2023-04-27T08:09:01;99845.44;;;22.89;52.90
35704;BME280;21820;51.112;13.762;2023-04-27T08:11:28;99845.19;;;22.82;53.37
35704;BME280;21820;51.112;13.762;2023-04-27T08:13:53;99813.03;;;23.17;50.91
35704;BME280;21820;51.112;13.762;2023-04-27T08:16:19;99840.59;;;23.40;49.64
35704;BME280;21820;51.112;13.762;2023-04-27T08:18:44;99838.84;;;23.58;49.43
35704;BME280;21820;51.112;13.762;2023-04-27T08:21:09;99827.22;;;23.61;48.20
35704;BME280;21820;51.112;13.762;2023-04-27T08:23:35;99833.38;;;23.42;50.57
35704;BME280;21820;51.112;13.762;2023-04-27T08:26:02;99840.34;;;23.24;50.66
35704;BME280;21820;51.112;13.762;2023-04-27T08:28:27;99839.28;;;23.17;51.41
35704;BME280;21820;51.112;13.762;2023-04-27T08:30:53;99825.78;;;23.12;51.08
35704;BME280;21820;51.112;13.762;2023-04-27T08:33:18;99837.72;;;23.24;51.01
35704;BME280;21820;51.112;13.762;2023-04-27T08:35:44;99837.03;;;23.32;51.19
35704;BME280;21820;51.112;13.762;2023-04-27T08:38:09;99832.47;;;23.34;51.78
35704;BME280;21820;51.112;13.762;2023-04-27T08:40:34;99830.34;;;23.37;51.00
35704;BME280;21820;51.112;13.762;2023-04-27T08:43:00;99829.72;;;23.35;51.75
35704;BME280;21820;51.112;13.762;2023-04-27T08:45:26;99825.72;;;23.31;51.75
35704;BME280;21820;51.112;13.762;2023-04-27T08:47:52;99827.75;;;23.64;50.67
35704;BME280;21820;51.112;13.762;2023-04-27T08:50:18;99838.13;;;23.83;49.33
35704;BME280;21820;51.112;13.762;2023-04-27T08:52:47;99834.53;;;23.84;48.31
35704;BME280;21820;51.112;13.762;2023-04-27T08:55:13;99833.09;;;23.72;50.04
35704;BME280;21820;51.112;13.762;2023-04-27T08:57:38;99831.06;;;23.39;50.46
35704;BME280;21820;51.112;13.762;2023-04-27T09:00:05;99824.59;;;23.24;51.16
35704;BME280;21820;51.112;13.762;2023-04-27T09:02:44;99827.69;;;23.10;52.00
35704;BME280;21820;51.112;13.762;2023-04-27T09:05:20;99820.69;;;23.01;51.73
35704;BME280;21820;51.112;13.762;2023-04-27T09:07:59;99804.03;;;22.83;52.23
35704;BME280;21820;51.112;13.762;2023-04-27T09:10:25;99820.31;;;22.86;52.59
35704;BME280;21820;51.112;13.762;2023-04-27T09:13:02;99818.81;;;22.84;53.08
35704;BME280;21820;51.112;13.762;2023-04-27T09:15:27;99828.47;;;22.83;52.55
35704;BME280;21820;51.112;13.762;2023-04-27T09:17:56;99817.16;;;22.83;53.33
35704;BME280;21820;51.112;13.762;2023-04-27T09:20:22;99815.66;;;23.27;50.84
35704;BME280;21820;51.112;13.762;2023-04-27T09:22:51;99822.47;;;23.47;49.20
35704;BME280;21820;51.112;13.762;2023-04-27T09:25:30;99818.31;;;23.71;49.48
35704;BME280;21820;51.112;13.762;2023-04-27T09:27:57;99828.34;;;23.58;50.24
35704;BME280;21820;51.112;13.762;2023-04-27T09:30:23;99818.63;;;23.41;50.92
35704;BME280;21820;51.112;13.762;2023-04-27T09:32:53;99815.16;;;23.41;50.81
35704;BME280;21820;51.112;13.762;2023-04-27T09:35:27;99812.25;;;23.44;50.50
35704;BME280;21820;51.112;13.762;2023-04-27T09:37:54;99820.94;;;23.44;50.71
35704;BME280;21820;51.112;13.762;2023-04-27T09:40:20;99803.56;;;23.43;50.59
35704;BME280;21820;51.112;13.762;2023-04-27T09:42:51;99814.50;;;23.39;51.14
35704;BME280;21820;51.112;13.762;2023-04-27T09:45:17;99812.38;;;23.42;51.41
35704;BME280;21820;51.112;13.762;2023-04-27T09:47:44;99809.97;;;23.31;51.20
35704;BME280;21820;51.112;13.762;2023-04-27T09:50:11;99800.19;;;23.23;51.51
35704;BME280;21820;51.112;13.762;2023-04-27T09:52:37;99805.91;;;23.64;50.33
35704;BME280;21820;51.112;13.762;2023-04-27T09:55:05;99789.81;;;23.76;48.47
35704;BME280;21820;51.112;13.762;2023-04-27T09:57:42;99787.19;;;23.76;48.49
35704;BME280;21820;51.112;13.762;2023-04-27T10:00:19;99797.94;;;23.56;49.47
35704;BME280;21820;51.112;13.762;2023-04-27T10:08:44;99797.06;;;23.01;51.91
35704;BME280;21820;51.112;13.762;2023-04-27T10:11:15;99795.47;;;22.90;52.58
35704;BME280;21820;51.112;13.762;2023-04-27T10:13:51;99800.47;;;22.84;52.34
35704;BME280;21820;51.112;13.762;2023-04-27T10:16:18;99794.97;;;22.77;53.45
35704;BME280;21820;51.112;13.762;2023-04-27T10:18:51;99790.41;;;22.70;53.50
35704;BME280;21820;51.112;13.762;2023-04-27T10:21:19;99798.00;;;22.73;53.13
35704;BME280;21820;51.112;13.762;2023-04-27T10:23:49;99807.34;;;22.85;53.07
35704;BME280;21820;51.112;13.762;2023-04-27T10:26:26;99797.31;;;23.17;49.19
35704;BME280;21820;51.112;13.762;2023-04-27T10:29:04;99799.38;;;23.50;48.93
35704;BME280;21820;51.112;13.762;2023-04-27T10:31:31;99805.19;;;23.71;48.36
35704;BME280;21820;51.112;13.762;2023-04-27T10:34:10;99795.47;;;23.54;50.28
35704;BME280;21820;51.112;13.762;2023-04-27T10:36:40;99792.59;;;23.30;50.67
35704;BME280;21820;51.112;13.762;2023-04-27T10:39:20;99794.66;;;23.27;51.04
35704;BME280;21820;51.112;13.762;2023-04-27T10:41:55;99792.47;;;23.22;50.92
35704;BME280;21820;51.112;13.762;2023-04-27T10:44:24;99797.84;;;23.30;51.52
35704;BME280;21820;51.112;13.762;2023-04-27T10:46:52;99795.34;;;23.29;51.23
35704;BME280;21820;51.112;13.762;2023-04-27T10:49:18;99800.59;;;23.29;51.18
35704;BME280;21820;51.112;13.762;2023-04-27T10:51:43;99801.66;;;23.26;51.10
35704;BME280;21820;51.112;13.762;2023-04-27T10:56:37;99807.50;;;23.20;51.85
35704;BME280;21820;51.112;13.762;2023-04-27T10:59:05;99798.41;;;23.51;49.45
35704;BME280;21820;51.112;13.762;2023-04-27T11:01:31;99793.09;;;23.61;48.74
35704;BME280;21820;51.112;13.762;2023-04-27T11:03:58;99799.03;;;23.80;49.09
35704;BME280;21820;51.112;13.762;2023-04-27T11:06:24;99804.50;;;23.69;49.49
35704;BME280;21820;51.112;13.762;2023-04-27T11:08:50;99784.28;;;23.25;51.07
35704;BME280;21820;51.112;13.762;2023-04-27T11:11:16;99808.34;;;23.11;52.13
35704;BME280;21820;51.112;13.762;2023-04-27T11:13:43;99799.84;;;22.99;51.90
35704;BME280;21820;51.112;13.762;2023-04-27T11:16:09;99797.94;;;22.92;52.41
35704;BME280;21820;51.112;13.762;2023-04-27T11:18:36;99801.81;;;22.88;52.66
35704;BME280;21820;51.112;13.762;2023-04-27T11:23:34;99797.84;;;22.74;52.75
35704;BME280;21820;51.112;13.762;2023-04-27T11:26:18;99794.16;;;22.67;53.43
35704;BME280;21820;51.112;13.762;2023-04-27T11:29:01;99796.78;;;22.67;53.68
35704;BME280;21820;51.112;13.762;2023-04-27T11:31:43;99790.41;;;23.16;50.76
35704;BME280;21820;51.112;13.762;2023-04-27T11:34:30;99791.00;;;23.37;48.94
35704;BME280;21820;51.112;13.762;2023-04-27T11:37:04;99793.00;;;23.53;49.20
35704;BME280;21820;51.112;13.762;2023-04-27T11:39:35;99788.34;;;23.47;50.95
35704;BME280;21820;51.112;13.762;2023-04-27T11:42:27;99774.75;;;23.24;50.66
35704;BME280;21820;51.112;13.762;2023-04-27T11:45:04;99802.47;;;23.36;50.56
35704;BME280;21820;51.112;13.762;2023-04-27T11:47:30;99800.84;;;23.35;51.17
35704;BME280;21820;51.112;13.762;2023-04-27T11:49:59;99806.34;;;23.32;50.99
35704;BME280;21820;51.112;13.762;2023-04-27T11:54:53;99808.72;;;23.25;51.29
35704;BME280;21820;51.112;13.762;2023-04-27T11:57:24;99803.22;;;23.19;52.04
35704;BME280;21820;51.112;13.762;2023-04-27T11:59:54;99803.56;;;23.06;52.34
35704;BME280;21820;51.112;13.762;2023-04-27T12:02:20;99807.41;;;23.02;52.81
35704;BME280;21820;51.112;13.762;2023-04-27T12:04:49;99794.41;;;23.47;50.05
35704;BME280;21820;51.112;13.762;2023-04-27T12:07:15;99801.78;;;23.61;48.54
35704;BME280;21820;51.112;13.762;2023-04-27T12:09:40;99808.38;;;23.65;47.93
35704;BME280;21820;51.112;13.762;2023-04-27T12:12:06;99798.09;;;23.54;49.70
35704;BME280;21820;51.112;13.762;2023-04-27T12:14:32;99800.97;;;23.24;50.78
35704;BME280;21820;51.112;13.762;2023-04-27T12:16:57;99805.34;;;23.06;51.13
35704;BME280;21820;51.112;13.762;2023-04-27T12:19:22;99803.44;;;22.98;52.44
35704;BME280;21820;51.112;13.762;2023-04-27T12:21:51;99801.53;;;22.91;51.93
35704;BME280;21820;51.112;13.762;2023-04-27T12:24:17;99811.63;;;22.86;52.67
35704;BME280;21820;51.112;13.762;2023-04-27T12:26:42;99815.50;;;22.82;52.36
35704;BME280;21820;51.112;13.762;2023-04-27T12:29:08;99812.78;;;22.74;53.06
35704;BME280;21820;51.112;13.762;2023-04-27T12:31:33;99803.22;;;22.73;52.93
35704;BME280;21820;51.112;13.762;2023-04-27T12:33:59;99808.22;;;22.66;52.80
35704;BME280;21820;51.112;13.762;2023-04-27T12:36:25;99812.72;;;22.93;50.85
35704;BME280;21820;51.112;13.762;2023-04-27T12:38:52;99806.31;;;23.05;50.44
35704;BME280;21820;51.112;13.762;2023-04-27T12:41:18;99815.44;;;23.38;48.66
35704;BME280;21820;51.112;13.762;2023-04-27T12:43:43;99811.44;;;23.43;48.00
35704;BME280;21820;51.112;13.762;2023-04-27T12:46:10;99818.72;;;23.49;49.09
35704;BME280;21820;51.112;13.762;2023-04-27T12:48:35;99818.00;;;23.20;50.73
35704;BME280;21820;51.112;13.762;2023-04-27T12:51:01;99816.22;;;23.11;51.54
35704;BME280;21820;51.112;13.762;2023-04-27T12:53:27;99813.31;;;23.14;51.92
35704;BME280;21820;51.112;13.762;2023-04-27T12:55:52;99816.63;;;23.16;51.88
35704;BME280;21820;51.112;13.762;2023-04-27T12:58:17;99815.09;;;23.23;51.17
35704;BME280;21820;51.112;13.762;2023-04-27T13:00:43;99816.88;;;23.22;51.51